Time;durP1;ratioP1;P1;durP2;ratioP2;P2;SDS_P1;SDS_P2;PMS_P1;PMS_P2;Temp;Humidity;BMP_temperature;BMP_pressure;BME280_temperature;BME280_humidity;BME280_pressure;Samples;Min_cycle;Max_cycle;Signal;HPM_P1;HPM_P2
2021/03/29 00:02:25;;;;;;;4.47;3.08;;;8.90;85.80;;;;;;5106228;28;20262;-52
2021/03/29 00:04:51;;;;;;;4.17;2.83;;;8.90;86.20;;;;;;5120261;27;21781;-52
2021/03/29 00:07:19;;;;;;;7.53;3.30;;;9.10;86.80;;;;;;5101765;27;20433;-51
2021/03/29 00:09:47;;;;;;;3.92;3.25;;;8.90;86.90;;;;;;5108259;28;20196;-52
2021/03/29 00:12:14;;;;;;;4.53;2.92;;;9.10;87.00;;;;;;5096161;27;20539;-51
2021/03/29 00:14:43;;;;;;;3.63;3.05;;;9.00;86.40;;;;;;5106682;28;20176;-51
2021/03/29 00:17:09;;;;;;;3.78;3.08;;;9.20;86.50;;;;;;5109604;27;20188;-51
2021/03/29 00:19:36;;;;;;;4.90;3.00;;;9.30;86.10;;;;;;5103720;27;20195;-52
2021/03/29 00:22:03;;;;;;;5.45;2.95;;;9.20;85.60;;;;;;5107762;28;20440;-52
2021/03/29 00:24:30;;;;;;;3.38;3.08;;;9.20;85.10;;;;;;5120762;27;20189;-52
2021/03/29 00:26:56;;;;;;;4.20;3.15;;;9.10;85.20;;;;;;5105512;27;20234;-51
2021/03/29 00:29:22;;;;;;;3.07;2.80;;;9.30;85.00;;;;;;5105403;27;20293;-51
2021/03/29 00:31:48;;;;;;;4.63;3.00;;;9.10;85.00;;;;;;5114023;27;20481;-51
2021/03/29 00:34:14;;;;;;;5.07;3.40;;;9.50;85.40;;;;;;5109688;27;20182;-51
2021/03/29 00:36:41;;;;;;;3.92;3.00;;;9.20;85.00;;;;;;5111800;27;20433;-52
2021/03/29 00:39:07;;;;;;;5.88;3.47;;;9.20;85.10;;;;;;5103686;28;20253;-52
2021/03/29 00:41:34;;;;;;;5.38;3.17;;;9.40;84.90;;;;;;5097822;28;20270;-52
2021/03/29 00:44:01;;;;;;;7.03;3.00;;;9.10;84.50;;;;;;5105750;27;20647;-51
2021/03/29 00:46:28;;;;;;;3.80;3.20;;;9.30;85.20;;;;;;5112622;27;20211;-52
2021/03/29 00:48:55;;;;;;;3.95;2.78;;;9.60;84.60;;;;;;5101697;28;20230;-52
2021/03/29 00:51:27;;;;;;;3.13;2.92;;;9.50;84.40;;;;;;5093862;28;20186;-52
2021/03/29 00:53:56;;;;;;;4.53;2.72;;;9.40;84.40;;;;;;5098704;27;20176;-52
2021/03/29 00:56:23;;;;;;;6.07;3.28;;;9.30;84.50;;;;;;5109248;27;20183;-52
2021/03/29 00:58:50;;;;;;;3.72;2.85;;;9.60;85.10;;;;;;5107155;27;20246;-52
2021/03/29 01:01:21;;;;;;;4.88;3.03;;;9.20;84.40;;;;;;5100206;27;20567;-52
2021/03/29 01:03:49;;;;;;;4.13;3.05;;;9.60;84.80;;;;;;5119144;27;20187;-52
2021/03/29 01:06:18;;;;;;;3.20;2.60;;;9.40;84.70;;;;;;5104578;27;20255;-52
2021/03/29 01:08:51;;;;;;;3.47;2.80;;;9.40;84.70;;;;;;5110953;27;20265;-52
2021/03/29 01:11:28;;;;;;;2.90;2.45;;;9.60;84.80;;;;;;5120531;27;20641;-52
2021/03/29 01:14:05;;;;;;;3.88;2.58;;;9.10;84.30;;;;;;5111323;27;20179;-52
2021/03/29 01:16:37;;;;;;;4.50;3.05;;;9.30;84.90;;;;;;5108922;27;20285;-52
2021/03/29 01:19:08;;;;;;;3.67;2.70;;;9.10;84.10;;;;;;5100111;27;20199;-51
2021/03/29 01:21:43;;;;;;;3.55;2.92;;;9.30;84.40;;;;;;5101085;27;20179;-51
2021/03/29 01:24:25;;;;;;;5.80;2.35;;;9.20;84.10;;;;;;5093304;27;20185;-52
2021/03/29 01:26:52;;;;;;;4.15;2.85;;;9.50;84.70;;;;;;5109884;27;20778;-51
2021/03/29 01:29:20;;;;;;;5.75;2.90;;;9.20;84.40;;;;;;5110630;27;20249;-51
2021/03/29 01:31:46;;;;;;;2.90;1.95;;;9.20;84.30;;;;;;5096092;27;20227;-51
2021/03/29 01:34:14;;;;;;;5.30;2.72;;;9.10;84.20;;;;;;5106750;27;20273;-52
2021/03/29 01:36:42;;;;;;;2.33;2.13;;;9.10;84.40;;;;;;5104574;27;20187;-51
2021/03/29 01:39:10;;;;;;;2.95;2.35;;;9.10;84.30;;;;;;5101217;28;20672;-51
2021/03/29 01:41:36;;;;;;;2.45;2.17;;;9.10;84.20;;;;;;5101309;27;20190;-52
2021/03/29 01:44:02;;;;;;;4.23;2.80;;;9.30;84.20;;;;;;5097401;27;20668;-51
2021/03/29 01:46:28;;;;;;;4.65;2.80;;;9.10;84.30;;;;;;5097416;27;20548;-52
2021/03/29 01:48:55;;;;;;;2.60;2.40;;;9.20;84.30;;;;;;5101868;28;20227;-52
2021/03/29 01:51:21;;;;;;;2.60;2.40;;;9.20;84.40;;;;;;5108624;27;20186;-51
2021/03/29 01:53:48;;;;;;;3.72;3.00;;;9.00;84.40;;;;;;5109727;27;20176;-51
2021/03/29 01:56:14;;;;;;;2.58;2.25;;;9.20;84.60;;;;;;5100516;27;20621;-52
2021/03/29 01:58:40;;;;;;;4.05;2.50;;;9.20;84.30;;;;;;5102832;27;20207;-51
2021/03/29 02:01:09;;;;;;;3.77;2.53;;;9.10;84.30;;;;;;5098424;27;20609;-51
2021/03/29 02:03:36;;;;;;;2.80;2.60;;;9.20;84.20;;;;;;5092175;28;20590;-51
2021/03/29 02:06:04;;;;;;;3.30;2.40;;;9.10;84.20;;;;;;5095366;28;20243;-51
2021/03/29 02:08:31;;;;;;;6.00;2.70;;;9.00;84.60;;;;;;5094793;27;20199;-51
2021/03/29 02:10:58;;;;;;;3.97;2.60;;;8.80;84.40;;;;;;5098664;28;20186;-51
2021/03/29 02:13:29;;;;;;;3.28;2.60;;;8.80;84.80;;;;;;5107042;27;20195;-52
2021/03/29 02:16:04;;;;;;;3.25;2.50;;;9.00;85.40;;;;;;5111041;27;20253;-52
2021/03/29 02:18:37;;;;;;;2.20;2.00;;;8.70;85.30;;;;;;5119522;27;20557;-51
2021/03/29 02:21:13;;;;;;;5.45;2.70;;;8.50;85.60;;;;;;5112110;27;20663;-51
2021/03/29 02:23:42;;;;;;;3.65;2.70;;;8.50;86.50;;;;;;5094838;27;20183;-52
2021/03/29 02:26:08;;;;;;;3.78;2.70;;;8.40;86.70;;;;;;5099475;28;20294;-51
2021/03/29 02:28:35;;;;;;;2.55;2.17;;;8.60;86.90;;;;;;5109587;27;20236;-52
2021/03/29 02:31:02;;;;;;;2.40;2.20;;;8.50;86.80;;;;;;5095026;28;20183;-52
2021/03/29 02:33:31;;;;;;;3.22;2.70;;;8.60;87.00;;;;;;5094867;27;20189;-52
2021/03/29 02:35:57;;;;;;;2.90;2.60;;;8.60;87.20;;;;;;5109930;27;20179;-52
2021/03/29 02:38:23;;;;;;;3.30;2.13;;;8.30;87.10;;;;;;5100309;28;20200;-52
2021/03/29 02:40:51;;;;;;;4.00;2.50;;;8.70;87.50;;;;;;5109120;27;20187;-52
2021/03/29 02:43:19;;;;;;;3.80;2.85;;;8.30;87.20;;;;;;5101665;27;20211;-52
2021/03/29 02:46:06;;;;;;;4.78;2.55;;;8.20;87.30;;;;;;5094701;28;20657;-52
2021/03/29 02:48:38;;;;;;;3.22;2.38;;;8.30;87.40;;;;;;5114866;27;20198;-52
2021/03/29 02:51:06;;;;;;;2.60;2.35;;;8.20;87.60;;;;;;5094147;27;20656;-52
2021/03/29 02:53:34;;;;;;;3.10;2.80;;;8.30;88.10;;;;;;5101849;28;20641;-51
2021/03/29 02:56:05;;;;;;;3.80;2.55;;;8.20;87.80;;;;;;5094873;28;20218;-51
2021/03/29 02:58:32;;;;;;;2.63;2.40;;;8.10;87.50;;;;;;5103624;27;20202;-51
2021/03/29 03:00:58;;;;;;;4.43;2.83;;;8.50;88.00;;;;;;5092627;28;20187;-51
2021/03/29 03:03:26;;;;;;;5.60;3.15;;;8.20;87.40;;;;;;5091885;28;20223;-51
2021/03/29 03:05:53;;;;;;;2.95;2.30;;;8.40;88.40;;;;;;5105119;28;20210;-52
2021/03/29 03:08:20;;;;;;;5.30;2.42;;;8.30;88.10;;;;;;5109082;28;20243;-51
2021/03/29 03:10:47;;;;;;;3.00;2.58;;;8.20;88.30;;;;;;5100384;28;20190;-51
2021/03/29 03:13:13;;;;;;;2.67;2.30;;;8.30;88.30;;;;;;5103574;28;20180;-52
2021/03/29 03:15:39;;;;;;;2.67;2.10;;;8.00;87.90;;;;;;5105226;27;20218;-51
2021/03/29 03:18:08;;;;;;;4.13;2.63;;;8.10;88.50;;;;;;5095276;28;20698;-51
2021/03/29 03:20:36;;;;;;;2.50;2.28;;;8.10;88.60;;;;;;5091553;28;20201;-52
2021/03/29 03:23:05;;;;;;;2.85;2.45;;;7.90;88.80;;;;;;5100807;27;20228;-51
2021/03/29 03:25:40;;;;;;;2.95;2.53;;;8.10;89.80;;;;;;5107021;27;20203;-51
2021/03/29 03:28:08;;;;;;;4.50;2.55;;;7.90;89.40;;;;;;5095435;28;20234;-52
2021/03/29 03:30:36;;;;;;;3.42;2.35;;;8.00;89.90;;;;;;5113399;27;20212;-52
2021/03/29 03:33:04;;;;;;;6.20;3.40;;;8.00;89.80;;;;;;5103980;27;20319;-51
2021/03/29 03:35:30;;;;;;;2.70;2.30;;;7.70;90.00;;;;;;5097709;28;20192;-51
2021/03/29 03:37:59;;;;;;;3.30;2.67;;;7.80;90.30;;;;;;5110195;27;20183;-51
2021/03/29 03:40:26;;;;;;;3.13;2.70;;;7.60;90.40;;;;;;5096747;28;20180;-51
2021/03/29 03:42:55;;;;;;;5.05;2.30;;;7.60;90.40;;;;;;5112173;27;20212;-51
2021/03/29 03:45:25;;;;;;;3.85;3.00;;;7.80;90.70;;;;;;5108721;27;20679;-51
2021/03/29 03:47:53;;;;;;;5.72;2.80;;;7.50;90.60;;;;;;5108926;28;20188;-52
2021/03/29 03:50:19;;;;;;;4.43;3.25;;;7.80;90.80;;;;;;5101870;27;20180;-52
2021/03/29 03:52:46;;;;;;;3.05;2.40;;;7.60;90.70;;;;;;5113018;27;20175;-51
2021/03/29 03:55:15;;;;;;;3.05;2.40;;;7.80;90.90;;;;;;5105833;27;20210;-51
2021/03/29 03:57:41;;;;;;;6.07;3.35;;;7.90;90.80;;;;;;5132428;27;20222;-51
2021/03/29 04:00:16;;;;;;;2.88;2.58;;;7.60;90.70;;;;;;5105900;27;20186;-51
2021/03/29 04:02:43;;;;;;;6.15;4.20;;;7.50;90.70;;;;;;5094872;28;20187;-51
2021/03/29 04:05:16;;;;;;;3.03;2.72;;;7.40;90.50;;;;;;5126083;27;20313;-51
2021/03/29 04:07:43;;;;;;;3.22;2.80;;;7.70;90.90;;;;;;5101154;27;20609;-52
2021/03/29 04:10:21;;;;;;;3.60;2.70;;;7.50;91.10;;;;;;5114266;27;20214;-51
2021/03/29 04:12:53;;;;;;;3.15;2.63;;;7.40;91.00;;;;;;5099853;28;20279;-51
2021/03/29 04:15:19;;;;;;;3.20;2.60;;;7.50;91.00;;;;;;5101850;28;20227;-51
2021/03/29 04:17:44;;;;;;;4.35;2.50;;;7.50;91.00;;;;;;5098108;27;20187;-52
2021/03/29 04:20:11;;;;;;;3.23;2.47;;;7.80;91.30;;;;;;5105914;28;20515;-51
2021/03/29 04:22:37;;;;;;;4.82;2.05;;;7.70;91.00;;;;;;5110915;28;20194;-51
2021/03/29 04:25:07;;;;;;;3.63;2.70;;;7.40;90.90;;;;;;5108805;28;20226;-51
2021/03/29 04:27:34;;;;;;;3.63;2.65;;;7.40;90.90;;;;;;5098780;28;20588;-52
2021/03/29 04:29:59;;;;;;;3.45;2.35;;;7.50;91.00;;;;;;5108577;28;20226;-51
2021/03/29 04:32:25;;;;;;;4.03;2.60;;;7.70;91.00;;;;;;5109236;28;20659;-52
2021/03/29 04:34:51;;;;;;;2.60;2.40;;;7.60;90.70;;;;;;5126337;27;20175;-52
2021/03/29 04:37:17;;;;;;;4.57;2.50;;;7.80;90.90;;;;;;5099735;28;20183;-53
2021/03/29 04:39:43;;;;;;;4.13;2.63;;;7.70;90.90;;;;;;5100725;28;20198;-52
2021/03/29 04:42:09;;;;;;;3.37;3.07;;;7.50;91.00;;;;;;5102207;28;20460;-52
2021/03/29 04:44:34;;;;;;;6.30;2.60;;;7.30;91.00;;;;;;5104594;28;20651;-52
2021/03/29 04:47:00;;;;;;;4.30;3.40;;;7.60;91.20;;;;;;5111406;28;20474;-51
2021/03/29 04:49:26;;;;;;;5.80;3.00;;;7.60;91.40;;;;;;5108407;28;20460;-52
2021/03/29 04:51:52;;;;;;;3.63;3.30;;;7.70;91.10;;;;;;5103709;28;20205;-52
2021/03/29 04:54:19;;;;;;;4.97;2.70;;;7.40;90.90;;;;;;5112756;28;20179;-52
2021/03/29 04:56:45;;;;;;;6.90;3.15;;;7.80;91.50;;;;;;5093765;28;20520;-51
2021/03/29 04:59:10;;;;;;;9.07;3.00;;;7.30;91.10;;;;;;5102378;28;20356;-52
2021/03/29 05:01:36;;;;;;;5.43;3.90;;;7.60;91.60;;;;;;5104103;28;20441;-52
2021/03/29 05:04:02;;;;;;;11.23;2.90;;;7.50;91.50;;;;;;5099941;28;20178;-52
2021/03/29 05:06:30;;;;;;;4.00;3.20;;;7.50;91.50;;;;;;5101416;28;20691;-51
2021/03/29 05:08:55;;;;;;;4.65;2.90;;;7.50;91.50;;;;;;5098793;28;20382;-52
2021/03/29 05:11:21;;;;;;;3.33;3.03;;;7.60;91.70;;;;;;5093137;28;20237;-51
2021/03/29 05:13:47;;;;;;;5.00;3.53;;;7.30;91.60;;;;;;5098245;28;20179;-50
2021/03/29 05:16:12;;;;;;;3.83;3.40;;;7.70;91.70;;;;;;5086108;27;588852;-50
2021/03/29 05:18:38;;;;;;;4.60;2.60;;;7.90;91.30;;;;;;5093058;28;20200;-52
2021/03/29 05:21:04;;;;;;;4.67;3.87;;;7.70;91.00;;;;;;5095192;28;20507;-51
2021/03/29 05:23:29;;;;;;;3.67;3.10;;;7.80;90.70;;;;;;5118570;27;20189;-50
2021/03/29 05:25:56;;;;;;;5.20;3.50;;;7.80;90.90;;;;;;5100768;27;20710;-54
2021/03/29 05:28:21;;;;;;;4.13;3.10;;;8.20;91.00;;;;;;5104181;27;20198;-51
2021/03/29 05:30:47;;;;;;;4.20;3.27;;;8.00;90.90;;;;;;5101020;27;20184;-51
2021/03/29 05:33:13;;;;;;;5.53;2.80;;;8.30;90.60;;;;;;5103186;27;20555;-52
2021/03/29 05:35:38;;;;;;;3.40;2.60;;;8.20;90.40;;;;;;5110335;27;20449;-52
2021/03/29 05:38:04;;;;;;;8.73;4.63;;;7.80;90.30;;;;;;5105430;27;20199;-52
2021/03/29 05:40:30;;;;;;;5.87;3.10;;;8.30;90.40;;;;;;5105584;28;20180;-51
2021/03/29 05:42:56;;;;;;;5.60;3.37;;;8.10;90.20;;;;;;5100565;27;20215;-54
2021/03/29 05:45:23;;;;;;;5.65;2.60;;;8.30;90.20;;;;;;5099755;28;20227;-50
2021/03/29 05:47:50;;;;;;;4.20;3.10;;;8.20;90.20;;;;;;5091951;27;20206;-50
2021/03/29 05:50:17;;;;;;;9.32;3.50;;;8.30;90.10;;;;;;5098750;27;20179;-51
2021/03/29 05:52:44;;;;;;;5.13;3.60;;;8.20;90.00;;;;;;5107586;27;20678;-52
2021/03/29 05:55:17;;;;;;;5.13;3.05;;;8.30;89.90;;;;;;5108030;27;20267;-52
2021/03/29 06:00:33;;;;;;;4.20;3.80;;;8.60;88.20;;;;;;5120285;27;20175;-51
2021/03/29 06:03:22;;;;;;;3.90;2.90;;;8.80;87.40;;;;;;5106072;27;20193;-51
2021/03/29 06:05:49;;;;;;;5.50;2.88;;;9.00;86.80;;;;;;5102056;27;20688;-51
2021/03/29 06:08:16;;;;;;;9.27;3.25;;;9.00;85.60;;;;;;5105743;27;20203;-51
2021/03/29 06:10:44;;;;;;;5.85;3.25;;;9.10;85.30;;;;;;5122831;27;20189;-51
2021/03/29 06:13:36;;;;;;;3.50;3.20;;;9.30;85.40;;;;;;5104414;27;20183;-53
2021/03/29 06:16:10;;;;;;;5.50;3.17;;;9.20;85.60;;;;;;5105346;27;20294;-50
2021/03/29 06:18:38;;;;;;;5.18;3.10;;;9.30;85.30;;;;;;5103978;27;20214;-53
2021/03/29 06:21:11;;;;;;;6.60;3.55;;;9.40;84.80;;;;;;5097656;27;20197;-53
2021/03/29 06:23:41;;;;;;;6.55;3.60;;;9.40;84.90;;;;;;5095762;27;20184;-51
2021/03/29 06:26:23;;;;;;;5.72;3.95;;;9.60;85.50;;;;;;5103591;27;20257;-51
2021/03/29 06:28:50;;;;;;;3.83;3.15;;;9.50;85.30;;;;;;5100131;27;20208;-51
2021/03/29 06:31:23;;;;;;;5.95;3.80;;;9.70;84.60;;;;;;5097226;28;20172;-51
2021/03/29 06:33:50;;;;;;;7.78;4.65;;;9.80;84.30;;;;;;5099353;27;20326;-51
2021/03/29 06:36:37;;;;;;;7.18;3.95;;;9.70;83.70;;;;;;5107132;27;20188;-51
2021/03/29 06:39:17;;;;;;;5.20;3.90;;;10.20;81.90;;;;;;5104089;27;20210;-51
2021/03/29 06:41:56;;;;;;;4.90;3.63;;;10.60;81.40;;;;;;5103528;27;20183;-54
2021/03/29 06:44:37;;;;;;;6.82;4.10;;;10.60;80.50;;;;;;5095150;28;20181;-54
2021/03/29 06:47:11;;;;;;;5.75;3.30;;;11.00;79.90;;;;;;5100255;27;20595;-56
2021/03/29 06:49:48;;;;;;;6.30;4.00;;;10.70;78.80;;;;;;5126288;27;20193;-54
2021/03/29 06:52:31;;;;;;;8.07;4.53;;;11.10;78.60;;;;;;5101137;28;20182;-55
2021/03/29 06:55:16;;;;;;;8.05;4.00;;;11.30;78.90;;;;;;5108479;27;20298;-54
2021/03/29 06:57:42;;;;;;;10.95;4.03;;;11.10;77.90;;;;;;5104491;27;20280;-54
2021/03/29 07:00:15;;;;;;;7.25;4.15;;;11.20;78.20;;;;;;5123042;27;20180;-51
2021/03/29 07:02:43;;;;;;;6.30;4.18;;;11.50;78.10;;;;;;5109214;28;20276;-48
2021/03/29 07:05:10;;;;;;;6.10;4.05;;;11.60;78.00;;;;;;5119955;27;20212;-49
2021/03/29 07:07:37;;;;;;;7.40;4.10;;;11.60;77.00;;;;;;5098525;28;21979;-49
2021/03/29 07:10:07;;;;;;;6.50;4.30;;;11.60;76.70;;;;;;5103845;28;20315;-48
2021/03/29 07:12:37;;;;;;;15.00;4.70;;;11.80;76.90;;;;;;5099921;28;20559;-49
2021/03/29 07:15:06;;;;;;;7.53;4.25;;;12.20;77.40;;;;;;5105281;28;20214;-50
2021/03/29 07:17:36;;;;;;;6.10;4.68;;;12.50;76.70;;;;;;5103363;28;20179;-51
2021/03/29 07:20:05;;;;;;;7.95;4.00;;;12.60;76.70;;;;;;5102741;28;20195;-50
2021/03/29 07:22:33;;;;;;;5.00;3.47;;;12.50;75.30;;;;;;5100646;28;20175;-51
2021/03/29 07:25:05;;;;;;;8.98;4.00;;;13.00;73.60;;;;;;5092399;28;20478;-50
2021/03/29 07:27:35;;;;;;;5.63;3.63;;;13.20;74.10;;;;;;5117149;28;20209;-50
2021/03/29 07:30:00;;;;;;;11.63;4.10;;;13.80;71.20;;;;;;5097428;28;20238;-53
2021/03/29 07:32:26;;;;;;;4.27;3.70;;;14.00;69.60;;;;;;5100579;28;20296;-53
2021/03/29 07:34:52;;;;;;;7.03;4.90;;;14.50;68.60;;;;;;5122380;28;20429;-53
2021/03/29 07:37:29;;;;;;;7.85;4.60;;;14.70;66.40;;;;;;5106888;28;20544;-52
2021/03/29 07:39:55;;;;;;;5.68;3.80;;;14.80;65.00;;;;;;5106327;28;20213;-55
2021/03/29 07:42:24;;;;;;;13.27;3.97;;;14.90;64.80;;;;;;5096520;28;20715;-53
2021/03/29 07:45:00;;;;;;;8.25;4.97;;;15.00;64.80;;;;;;5096765;28;20195;-52
2021/03/29 07:47:43;;;;;;;6.60;4.50;;;14.70;64.50;;;;;;5102941;28;20628;-51
2021/03/29 07:50:29;;;;;;;6.88;4.18;;;14.60;65.20;;;;;;5112979;28;20565;-51
2021/03/29 07:52:58;;;;;;;5.78;3.80;;;14.90;64.80;;;;;;5094593;28;20533;-52
2021/03/29 07:55:28;;;;;;;5.00;3.80;;;15.40;63.50;;;;;;5102705;28;20219;-52
2021/03/29 07:57:58;;;;;;;8.15;5.45;;;16.10;62.20;;;;;;5106627;28;20549;-50
2021/03/29 08:00:24;;;;;;;12.32;4.97;;;17.20;60.30;;;;;;5107332;28;20175;-51
2021/03/29 08:03:00;;;;;;;7.27;5.70;;;17.20;58.00;;;;;;5102067;28;20190;-50
2021/03/29 08:05:36;;;;;;;9.07;5.50;;;17.00;59.40;;;;;;5099955;28;20210;-56
2021/03/29 08:08:21;;;;;;;6.38;4.28;;;18.50;57.40;;;;;;5096618;28;20236;-57
2021/03/29 08:11:11;;;;;;;5.05;4.30;;;19.60;55.50;;;;;;5105582;27;20517;-55
2021/03/29 08:13:41;;;;;;;4.97;4.18;;;20.00;52.40;;;;;;5129057;27;20187;-57
2021/03/29 08:16:27;;;;;;;4.27;3.73;;;20.30;51.10;;;;;;5102692;28;20191;-51
2021/03/29 08:19:18;;;;;;;4.32;3.60;;;20.50;49.20;;;;;;5104292;27;20940;-51
2021/03/29 08:21:55;;;;;;;6.73;5.10;;;20.60;50.00;;;;;;5097760;28;20208;-53
2021/03/29 08:24:25;;;;;;;8.25;5.30;;;20.50;50.30;;;;;;5103495;27;20462;-51
2021/03/29 08:26:53;;;;;;;5.90;4.60;;;20.40;50.40;;;;;;5101640;27;20431;-51
2021/03/29 08:29:30;;;;;;;7.43;4.22;;;20.80;49.60;;;;;;5097144;27;20260;-50
2021/03/29 08:32:15;;;;;;;5.40;4.38;;;20.30;49.00;;;;;;5100168;27;20178;-51
2021/03/29 08:34:48;;;;;;;8.90;5.20;;;20.50;49.70;;;;;;5108629;27;20174;-52
2021/03/29 08:37:17;;;;;;;8.77;3.60;;;20.30;49.50;;;;;;5098278;27;20179;-52
2021/03/29 08:39:45;;;;;;;7.05;4.97;;;20.40;49.30;;;;;;5107224;27;20202;-52
2021/03/29 08:42:12;;;;;;;4.53;2.80;;;20.30;49.80;;;;;;5102402;28;20186;-52
2021/03/29 08:44:42;;;;;;;5.47;4.00;;;20.40;49.60;;;;;;5119363;27;20183;-51
2021/03/29 08:47:11;;;;;;;3.20;2.30;;;20.30;47.20;;;;;;5099617;27;20214;-52
2021/03/29 08:49:37;;;;;;;3.20;2.10;;;20.10;47.10;;;;;;5106863;27;20659;-52
2021/03/29 08:52:04;;;;;;;5.10;3.57;;;20.00;47.90;;;;;;5101766;27;20196;-51
2021/03/29 08:54:30;;;;;;;28.90;6.17;;;21.20;48.10;;;;;;5101431;28;20448;-52
2021/03/29 08:57:02;;;;;;;5.23;2.87;;;21.80;47.10;;;;;;5102624;27;20437;-52
2021/03/29 08:59:29;;;;;;;6.47;2.30;;;22.10;46.30;;;;;;5111180;27;20698;-52
2021/03/29 09:01:55;;;;;;;4.80;2.73;;;21.60;45.20;;;;;;5093695;28;20861;-53
2021/03/29 09:04:20;;;;;;;5.10;3.07;;;21.60;45.60;;;;;;5095086;27;20444;-52
2021/03/29 09:06:55;;;;;;;3.63;2.10;;;21.30;46.00;;;;;;5102510;27;20845;-53
2021/03/29 09:09:22;;;;;;;2.90;1.87;;;21.40;46.00;;;;;;5095355;27;20198;-52
2021/03/29 09:11:50;;;;;;;4.68;2.20;;;21.20;45.20;;;;;;5098209;27;20436;-52
2021/03/29 09:14:17;;;;;;;7.25;2.70;;;20.80;45.10;;;;;;5104654;27;20184;-51
2021/03/29 09:16:44;;;;;;;1.98;1.75;;;20.70;45.30;;;;;;5108730;27;20201;-52
2021/03/29 09:19:21;;;;;;;5.57;2.50;;;20.80;45.90;;;;;;5093152;27;20199;-52
2021/03/29 09:22:03;;;;;;;4.57;2.30;;;21.20;45.90;;;;;;5109490;27;20186;-52
2021/03/29 09:24:29;;;;;;;2.60;2.00;;;21.10;45.50;;;;;;5100400;28;20192;-51
2021/03/29 09:27:00;;;;;;;6.37;2.67;;;21.10;45.20;;;;;;5118744;27;20225;-51
2021/03/29 09:29:32;;;;;;;2.93;2.00;;;21.70;44.80;;;;;;5094536;27;20452;-52
2021/03/29 09:32:18;;;;;;;5.57;2.43;;;22.70;43.30;;;;;;5112372;27;20440;-52
2021/03/29 09:34:49;;;;;;;3.47;2.30;;;24.20;41.60;;;;;;5100940;28;20436;-52
2021/03/29 09:37:23;;;;;;;3.33;2.00;;;23.80;40.70;;;;;;5101150;28;20496;-52
2021/03/29 09:40:03;;;;;;;3.20;2.47;;;23.50;40.40;;;;;;5100683;27;20456;-52
2021/03/29 09:42:49;;;;;;;3.30;1.90;;;23.80;40.20;;;;;;5101132;28;20469;-52
2021/03/29 09:45:29;;;;;;;2.47;1.80;;;23.30;40.50;;;;;;5100952;27;20504;-51
2021/03/29 09:48:13;;;;;;;6.20;2.17;;;23.20;41.30;;;;;;5105869;27;20747;-51
2021/03/29 09:50:41;;;;;;;4.90;2.00;;;24.10;39.70;;;;;;5099289;28;20441;-51
2021/03/29 09:53:22;;;;;;;3.63;2.47;;;24.50;38.80;;;;;;5100656;27;20968;-51
2021/03/29 09:55:55;;;;;;;4.57;2.27;;;25.60;38.70;;;;;;5100131;27;20999;-52
2021/03/29 09:58:29;;;;;;;3.23;2.73;;;26.30;37.30;;;;;;5103719;27;21022;-53
2021/03/29 10:01:00;;;;;;;4.97;3.33;;;26.70;37.00;;;;;;5098818;28;20460;-54
2021/03/29 10:03:27;;;;;;;4.87;3.00;;;27.10;36.50;;;;;;5101110;27;20446;-53
2021/03/29 10:05:53;;;;;;;2.57;2.37;;;27.80;35.30;;;;;;5102086;27;20472;-54
2021/03/29 10:08:33;;;;;;;3.00;1.87;;;27.90;33.50;;;;;;5102645;27;20501;-54
2021/03/29 10:11:09;;;;;;;3.20;2.20;;;27.80;32.40;;;;;;5103197;27;20442;-54
2021/03/29 10:13:40;;;;;;;3.93;2.40;;;27.60;32.60;;;;;;5104446;27;20435;-53
2021/03/29 10:16:27;;;;;;;3.80;1.70;;;26.40;33.40;;;;;;5122736;27;20460;-53
2021/03/29 10:19:07;;;;;;;7.47;3.23;;;25.20;34.80;;;;;;5097445;27;20488;-53
2021/03/29 10:21:53;;;;;;;5.73;2.60;;;24.80;35.90;;;;;;5126258;27;20432;-54
2021/03/29 10:24:19;;;;;;;3.43;2.10;;;24.90;36.20;;;;;;5096140;27;20436;-54
2021/03/29 10:26:59;;;;;;;3.00;2.40;;;25.20;35.70;;;;;;5101332;27;20463;-54
2021/03/29 10:29:39;;;;;;;4.23;1.90;;;24.10;36.30;;;;;;5105635;27;20197;-53
2021/03/29 10:32:13;;;;;;;4.03;1.97;;;24.30;35.00;;;;;;5106275;27;20439;-53
2021/03/29 10:34:41;;;;;;;4.57;2.13;;;24.50;33.70;;;;;;5102574;27;20470;-52
2021/03/29 10:37:40;;;;;;;3.60;1.80;;;24.30;33.80;;;;;;5100712;27;20440;-53
2021/03/29 10:40:06;;;;;;;3.37;2.30;;;24.90;33.50;;;;;;5064291;27;20435;-54
2021/03/29 10:42:35;;;;;;;3.57;2.20;;;24.50;32.70;;;;;;5105302;27;20497;-50
2021/03/29 10:45:06;;;;;;;4.57;2.53;;;23.80;32.80;;;;;;5113380;27;20823;-54
2021/03/29 10:47:32;;;;;;;2.20;1.70;;;24.00;33.10;;;;;;5102407;27;20441;-54
2021/03/29 10:49:57;;;;;;;2.57;2.03;;;23.90;32.80;;;;;;5107133;28;20461;-51
2021/03/29 10:52:23;;;;;;;3.10;2.80;;;24.70;34.10;;;;;;5094452;27;20537;-54
2021/03/29 10:54:49;;;;;;;4.90;2.20;;;24.90;34.50;;;;;;5099130;27;20189;-54
2021/03/29 10:57:15;;;;;;;3.20;2.80;;;25.30;34.00;;;;;;5096969;27;20182;-52
2021/03/29 10:59:41;;;;;;;2.90;2.60;;;25.50;35.60;;;;;;5097440;28;20466;-54
2021/03/29 11:02:07;;;;;;;3.03;2.50;;;24.10;34.70;;;;;;5095679;27;20311;-53
2021/03/29 11:04:33;;;;;;;5.10;2.20;;;23.90;35.50;;;;;;5091026;28;20180;-55
2021/03/29 11:06:59;;;;;;;4.77;2.20;;;23.90;34.30;;;;;;5096848;28;20564;-55
2021/03/29 11:09:25;;;;;;;3.50;1.97;;;24.30;34.20;;;;;;5100249;28;20454;-54
2021/03/29 11:11:52;;;;;;;4.47;1.83;;;24.10;32.50;;;;;;5106679;28;20464;-55
2021/03/29 11:14:19;;;;;;;2.53;2.20;;;23.90;32.10;;;;;;5099889;28;20449;-54
2021/03/29 11:16:45;;;;;;;3.80;2.43;;;24.10;31.80;;;;;;5104720;27;20448;-54
2021/03/29 11:19:11;;;;;;;1.70;1.60;;;23.90;31.70;;;;;;5099933;28;20487;-54
2021/03/29 11:21:36;;;;;;;3.43;2.17;;;24.10;31.70;;;;;;5096873;28;20536;-54
2021/03/29 11:24:02;;;;;;;3.17;1.83;;;24.40;32.30;;;;;;5120439;28;20192;-55
2021/03/29 11:26:28;;;;;;;5.30;4.00;;;24.80;32.80;;;;;;5109420;28;20220;-53
2021/03/29 11:28:57;;;;;;;3.27;1.80;;;24.90;32.00;;;;;;5094891;28;20261;-54
2021/03/29 11:31:24;;;;;;;2.07;1.83;;;24.70;32.10;;;;;;5094967;28;20463;-54
2021/03/29 11:33:51;;;;;;;4.17;2.30;;;24.70;32.20;;;;;;5105534;28;20493;-55
2021/03/29 11:36:18;;;;;;;3.60;2.00;;;24.40;31.80;;;;;;5102609;28;20470;-56
2021/03/29 11:38:44;;;;;;;2.67;2.00;;;23.90;31.90;;;;;;5107554;28;20539;-55
2021/03/29 11:41:10;;;;;;;2.27;1.70;;;24.00;32.20;;;;;;5106215;28;20474;-55
2021/03/29 11:43:36;;;;;;;3.40;2.27;;;24.30;32.70;;;;;;5103089;27;20521;-56
2021/03/29 11:46:02;;;;;;;2.37;1.93;;;24.50;32.10;;;;;;5106588;27;20540;-55
2021/03/29 11:48:27;;;;;;;2.40;2.03;;;24.30;31.50;;;;;;5107104;27;20224;-54
2021/03/29 11:50:53;;;;;;;2.47;1.87;;;24.30;31.10;;;;;;5100789;27;20536;-54
2021/03/29 11:53:19;;;;;;;1.80;1.70;;;24.40;31.10;;;;;;5108932;27;20253;-55
2021/03/29 11:55:46;;;;;;;2.23;1.97;;;24.40;31.00;;;;;;5101788;27;20686;-55
2021/03/29 11:58:12;;;;;;;3.87;2.10;;;24.00;30.50;;;;;;5118370;27;20203;-55
2021/03/29 12:03:35;;;;;;;3.47;1.93;;;24.30;30.70;;;;;;5118821;27;20445;-55
2021/03/29 12:06:06;;;;;;;3.70;2.10;;;24.10;32.70;;;;;;5112764;27;20496;-54
2021/03/29 12:13:45;;;;;;;2.97;1.97;;;23.70;32.80;;;;;;5119944;27;20205;-55
2021/03/29 12:16:12;;;;;;;3.10;2.07;;;23.50;32.60;;;;;;5106603;27;20957;-54
2021/03/29 12:21:06;;;;;;;1.80;1.70;;;23.40;32.60;;;;;;5125230;27;20526;-55
2021/03/29 12:23:34;;;;;;;2.63;2.40;;;23.00;32.80;;;;;;5100533;27;20443;-54
2021/03/29 12:26:01;;;;;;;1.73;1.50;;;23.10;33.10;;;;;;5108138;27;20459;-53
2021/03/29 12:28:31;;;;;;;2.57;1.60;;;22.90;33.00;;;;;;5102234;27;20447;-55
2021/03/29 12:30:59;;;;;;;3.37;3.00;;;22.70;33.30;;;;;;5116136;27;20479;-55
2021/03/29 12:33:25;;;;;;;5.03;2.87;;;22.60;34.40;;;;;;5114454;27;20457;-54
2021/03/29 12:35:55;;;;;;;3.10;1.70;;;22.70;34.40;;;;;;5104635;27;20972;-54
2021/03/29 12:38:23;;;;;;;3.13;2.00;;;22.50;33.60;;;;;;5094244;28;20537;-54
2021/03/29 12:40:52;;;;;;;2.72;1.90;;;22.40;34.00;;;;;;5096113;27;20433;-54
2021/03/29 12:43:32;;;;;;;3.90;2.10;;;22.00;33.70;;;;;;5103556;27;20183;-54
2021/03/29 12:46:01;;;;;;;5.23;2.13;;;22.30;34.80;;;;;;5099408;28;20457;-53
2021/03/29 12:48:26;;;;;;;3.40;2.07;;;22.40;34.20;;;;;;5105432;27;20448;-54
2021/03/29 12:50:52;;;;;;;5.00;3.57;;;22.60;34.00;;;;;;5096983;27;21272;-53
2021/03/29 12:53:21;;;;;;;2.50;1.70;;;22.50;34.00;;;;;;5099334;27;20210;-54
2021/03/29 12:55:47;;;;;;;2.60;1.80;;;22.40;33.40;;;;;;5121377;27;20187;-55
2021/03/29 12:58:13;;;;;;;4.80;2.00;;;22.40;34.20;;;;;;5101151;27;20455;-54
2021/03/29 13:00:38;;;;;;;3.10;1.70;;;22.40;35.50;;;;;;5097041;27;20184;-56
2021/03/29 13:03:07;;;;;;;5.07;2.17;;;22.40;35.50;;;;;;5104637;27;20179;-55
2021/03/29 13:08:06;;;;;;;5.80;2.17;;;22.50;36.00;;;;;;5118323;27;20471;-53
2021/03/29 13:10:46;;;;;;;3.53;1.87;;;22.60;36.30;;;;;;5106413;27;20171;-54
2021/03/29 13:13:13;;;;;;;2.47;2.10;;;22.60;35.80;;;;;;5097635;27;20970;-54
2021/03/29 13:15:38;;;;;;;3.37;2.47;;;22.50;34.90;;;;;;5106272;28;20451;-55
2021/03/29 13:18:04;;;;;;;6.13;2.00;;;22.50;35.20;;;;;;5093036;27;20461;-54
2021/03/29 13:20:30;;;;;;;2.60;1.90;;;22.40;34.10;;;;;;5108404;27;20187;-54
2021/03/29 13:22:55;;;;;;;2.70;1.90;;;22.50;34.00;;;;;;5118781;27;20701;-53